San Miguel de Tucuman, Argentina
Current Conditions -  °F | °C
As of 11:00 AM on Friday 19 Dec 2014 (Local Time) from SANT Reporting Station
Clear Clear  
Wind Chill: 84°   Ceiling: Unl
Heat Index: 87°   Visibility: 6mi
Dew Point: 68°   Wind: 8mph
Humidity: 58%   Direction: 50°NE
Pressure: 29.77"   Gusts: NA
Location:  26.83°S, 65.21°W
Report Text: SANT 191400Z 05007KT CAVOK 29/20 Q1008
Loading
Personal Weather Stations






























Interactive Weather Map New forecast layout! Learn more

10-Day Weather Forecast

Advertisements
Track Severe Weather on mobile